• Join FlightAware (Why Join?)
  • Login
  • US Flag 
01:00AM EDT


 

Airport Tracker/Info


-or-


 

Live Flight TrackerFlight Track Log ✈ N488VC ✈ 15-Apr-2013 ✈ KCAK - KBDL

Flight Track Log - Related Links

Times and Time Zones

All times are in EDT time to prevent confusion due to time zone crossing. See the N488VC flight status page for this flight to view local times or setup timezone preferences in your user account.

Time Position Orientation Groundspeed Altitude Reporting Facility
EDT Latitude Longitude Course Direction KTS MPH feet Rate Location/Type
05:43PM 40.8608 -81.3600 45° Northeast 260 299 5,500  Level Cleveland Center
05:44PM 40.9197 -81.2811 45° Northeast 260 299 9,000 3,120 Climbing Cleveland Center
05:45PM 40.9828 -81.2019 43° Northeast 287 330 11,800 2,580 Climbing Cleveland Center
05:46PM 41.0539 -81.1172 42° Northeast 325 374 14,200 2,100 Climbing Cleveland Center
05:47PM 41.1358 -81.0158 43° Northeast 357 411 16,100 2,280 Climbing Cleveland Center
05:48PM 41.1944 -80.9114 53° Northeast 371 427 18,800 2,400 Climbing Cleveland Center
05:49PM 41.2594 -80.7903 54° Northeast 392 451 20,900 1,920 Climbing Cleveland Center
05:50PM 41.3242 -80.6661 55° Northeast 411 473 22,700 1,800 Climbing Cleveland Center
05:51PM 41.3972 -80.5333 54° Northeast 426 490 24,600 1,800 Climbing Cleveland Center
05:52PM 41.4719 -80.3919 55° Northeast 426 490 26,300 1,680 Climbing Cleveland Center
05:53PM 41.5447 -80.2503 56° Northeast 436 502 28,000 1,320 Climbing Cleveland Center
05:54PM 41.6172 -80.1108 55° Northeast 448 516 29,000 600 Climbing Cleveland Center
05:55PM 41.6914 -79.9603 57° Northeast 463 533 29,300 600 Climbing Cleveland Center
05:56PM 41.7406 -79.7844 69° East 480 552 30,300 900 Climbing Cleveland Center
05:57PM 41.7869 -79.6086 70° East 502 578 31,200 900 Climbing Cleveland Center
05:58PM 41.8353 -79.4322 70° East 497 572 32,200 840 Climbing Cleveland Center
05:59PM 41.8714 -79.2922 71° East 497 572 32,900 900 Climbing Cleveland Center
06:00PM 41.9272 -79.0844 70° East 497 572 34,000 1,020 Climbing Cleveland Center
06:01PM 41.9728 -78.9103 71° East 492 566 35,000 900 Climbing Cleveland Center
06:02PM 42.0161 -78.7386 71° East 492 566 35,900 480 Climbing Cleveland Center
06:03PM 42.0611 -78.5639 71° East 492 566 36,000 120 Climbing Cleveland Center
06:04PM 42.1058 -78.3889 71° East 492 566 36,200 360 Climbing Cleveland Center
06:05PM 42.1483 -78.2139 72° East 492 566 36,800 360 Climbing Cleveland Center
06:06PM 42.1886 -78.0581 71° East 492 566 37,000 60 Climbing Cleveland Center
06:07PM 42.2347 -77.8797 71° East 492 566 37,000  Level Cleveland Center
06:08PM 42.2783 -77.7036 71° East 492 566 37,000  Level Cleveland Center
06:09PM 42.3197 -77.5250 73° East 492 566 37,000 -60 Level Cleveland Center
06:10PM 42.3683 -77.3286 71° East 492 566 36,900 -600 Descending Cleveland Center
06:12PM 42.4536 -76.9206 74° East 511 588 35,000 -600 Descending Boston Center
06:13PM 42.4733 -76.7333 82° East 505 581 35,000  Level Boston Center
06:14PM 42.4928 -76.5517 82° East 500 575 35,000  Level Boston Center
06:15PM 42.5097 -76.3667 83° East 500 575 35,000 -300 Level Boston Center
06:16PM 42.5306 -76.1792 81° East 500 575 34,400 -1,320 Descending Boston Center
06:17PM 42.5489 -75.9972 82° East 500 575 32,400 -1,980 Descending Boston Center
06:18PM 42.5483 -75.8139 90° East 494 568 30,400 -2,100 Descending Boston Center
06:19PM 42.5225 -75.6236 100° East 500 575 28,200 -1,260 Descending Boston Center
06:20PM 42.4961 -75.4447 101° East 500 575 28,000 -180 Descending Boston Center
06:21PM 42.4717 -75.2606 100° East 495 570 27,900 -840 Descending Boston Center
06:22PM 42.4678 -75.0747 92° East 489 563 26,400 -1,740 Descending Boston Center
06:23PM 42.4736 -74.9061 87° East 468 539 24,400 -1,860 Descending Boston Center
06:24PM 42.4744 -74.7767 89° East 447 514 22,800 -1,920 Descending Boston Center
06:25PM 42.4781 -74.5825 88° East 442 509 20,700 -1,860 Descending Boston Center
06:26PM 42.4831 -74.4219 88° East 436 502 19,100 -1,500 Descending Boston Center
06:27PM 42.4736 -74.2444 94° East 436 502 17,700 -1,140 Descending Boston Center
06:28PM 42.4486 -74.1031 103° East 430 495 16,900 -360 Descending Boston Center
06:29PM 42.4217 -73.9364 102° East 417 480 17,000  Climbing Boston Center
06:30PM 42.3983 -73.8150 105° East 417 480 17,000 -360 Level Boston Center
06:31PM 42.3669 -73.6344 103° East 411 473 16,300 -1,260 Descending Boston Center
06:32PM 42.3453 -73.5047 103° East 399 459 14,500 -1,800 Descending Boston Center
06:33PM 42.3294 -73.4314 106° East 387 445 13,700 -1,740 Descending Boston Center
06:33PM 42.3194 -73.3667 102° East 382 440 12,900 -1,680 Descending Boston Center
06:34PM 42.3075 -73.3019 104° East 383 441 12,200 -1,380 Descending Boston Center
06:34PM 42.2956 -73.2317 103° East 367 422 11,200 -1,500 Descending Boston Center
06:35PM 42.2483 -73.1189 119° Southeast 301 346 9,500 -1,680 Descending Boston Center
06:37PM 42.1758 -73.0200 135° Southeast 283 326 7,600 -1,740 Descending Boston Center
06:38PM 42.1181 -72.9356 133° Southeast 288 331 5,700 -1,740 Descending Boston Center
06:39PM 42.0558 -72.8511 135° Southeast 280 322 3,700 -1,560 Descending Boston Center
06:40PM 41.9997 -72.7753 135° Southeast 246 283 2,100 -1,260 Descending Boston Center
06:41PM 41.9686 -72.7306 133° Southeast 166 191 1,100 -1,020 Descending Boston Center
06:43PM 41.9333 -72.6833 135° Southeast  Level FlightAware Approximate